Svitzer Hamilton — VJSH — position and weather

sailwx.info

Track history (hours):
 
Tides and Currents Weather Stations Pressure Air Temp Water Temp Dewpoint Dewpoint Depression Visibility Wind Speed Wind Dir Waves Ship Positions

Svitzer Hamilton

Last reported at 2017-Nov-19 14:54 UTC. Time now 2017-Nov-20 23:06 UTC.
Position S 32°55' E 151°47'.

Length 25 m; draft 5.4 m.

Type: Tug. MMSI: 503544000.

Date/timePositionNaut miles runAvg speedWind from/ knotsBaromVisibWave heightAir tempDewpointWater temp
2017-Nov-19 14:54S 32°55' E 151°47'2 3.1
2017-Nov-19 14:15S 32°54' E 151°46'1 4.2
2017-Nov-19 14:00S 32°55' E 151°46'1 1.4
2017-Nov-19 13:15S 32°55' E 151°47'0 0.3
2017-Nov-19 12:42S 32°55' E 151°47'1 4.6
2017-Nov-19 12:29S 32°55' E 151°46'1 1.6
2017-Nov-19 11:46S 32°53' E 151°46'0 0.1
2017-Nov-19 11:11S 32°53' E 151°46'1 0.5
2017-Nov-19 08:26S 32°55' E 151°46'1 1.0
2017-Nov-19 07:46S 32°54' E 151°46'1 0.1
2017-Nov-18 23:17S 32°53' E 151°46'1 2.9
2017-Nov-18 23:00S 32°54' E 151°46'2 3.7
2017-Nov-18 22:30S 32°55' E 151°49'1 2.3
2017-Nov-18 21:54S 32°55' E 151°47'2 3.5
2017-Nov-18 21:26S 32°54' E 151°46'0 0.4
2017-Nov-18 20:43S 32°54' E 151°46'1 0.1
2017-Nov-18 12:54S 32°55' E 151°46'0 0.2
2017-Nov-18 12:29S 32°55' E 151°46'1 1.0
2017-Nov-18 11:13S 32°54' E 151°46'1 2.3
2017-Nov-18 10:59S 32°54' E 151°46'1 0.3
2017-Nov-18 09:02S 32°53' E 151°46'2 0.3
2017-Nov-18 03:09S 32°55' E 151°46'1 0.1
2017-Nov-17 19:46S 32°54' E 151°46'1 4.6
2017-Nov-17 19:30S 32°55' E 151°47'2 0.2
2017-Nov-17 10:14S 32°54' E 151°46'0 0.0
2017-Nov-17 07:39S 32°54' E 151°46'1 3.5
2017-Nov-17 07:26S 32°54' E 151°46'1 0.4
2017-Nov-17 04:04S 32°55' E 151°47'1 7.9
2017-Nov-17 03:53S 32°55' E 151°49'2 0.3
2017-Nov-16 21:47S 32°55' E 151°47'2 3.4
2017-Nov-16 21:16S 32°54' E 151°46'0 0.0
2017-Nov-16 19:14S 32°53' E 151°46'0 0.0
2017-Nov-16 13:05S 32°53' E 151°46'0 0.4
2017-Nov-16 12:57S 32°53' E 151°46'0 0.0
2017-Nov-16 00:34S 32°54' E 151°46'2 0.3
2017-Nov-15 19:22S 32°55' E 151°47'0 0.1
2017-Nov-15 17:27S 32°55' E 151°47'2 3.5
2017-Nov-15 17:00S 32°54' E 151°46'0 0.0
2017-Nov-15 03:49S 32°53' E 151°46'2 4.5
2017-Nov-15 03:25S 32°55' E 151°47'2 3.8
2017-Nov-15 02:59S 32°55' E 151°49'2 0.9
2017-Nov-15 00:34S 32°55' E 151°46'0 4.6
2017-Nov-15 00:30S 32°55' E 151°47'1 1.9
2017-Nov-14 23:59S 32°54' E 151°46'2 1.8
2017-Nov-14 23:06S 32°55' E 151°48'1 7.0
2017-Nov-14 22:59S 32°54' E 151°49'1 1.1
2017-Nov-14 22:28S 32°54' E 151°48'2 2.5
2017-Nov-14 21:52S 32°55' E 151°47'2 0.9
2017-Nov-14 19:52S 32°54' E 151°46'2 3.2
2017-Nov-14 19:09S 32°55' E 151°48'2 3.3
2017-Nov-14 18:40S 32°55' E 151°47'1 1.8
2017-Nov-14 18:23S 32°55' E 151°46'1 1.9
2017-Nov-14 18:00S 32°55' E 151°47'2 3.3
2017-Nov-14 17:29S 32°54' E 151°46'0 0.4
2017-Nov-14 16:31S 32°54' E 151°46'0 5.8
2017-Nov-14 16:30S 32°54' E 151°46'0 0.0
2017-Nov-14 10:33S 32°54' E 151°46'0 0.0
2017-Nov-14 10:26S 32°54' E 151°46'1 0.3
2017-Nov-14 08:38S 32°54' E 151°46'0 0.3
2017-Nov-14 08:08S 32°53' E 151°46'0 2.8
2017-Nov-14 07:58S 32°54' E 151°46'2 0.2
2017-Nov-13 23:29S 32°55' E 151°47'0 0.3
2017-Nov-13 21:53S 32°55' E 151°47'0 0.0
2017-Nov-13 01:10S 32°55' E 151°47'1 0.7
2017-Nov-12 23:03S 32°55' E 151°48'0 2.1
2017-Nov-12 22:56S 32°55' E 151°48'2 1.1
2017-Nov-12 21:10S 32°54' E 151°46'1 3.2
2017-Nov-12 20:55S 32°55' E 151°46'1 0.3
2017-Nov-12 16:56S 32°53' E 151°46'1 0.1
2017-Nov-12 11:20S 32°54' E 151°46'1 0.1
2017-Nov-12 06:21S 32°54' E 151°46'0 0.0
2017-Nov-11 21:13S 32°53' E 151°46'0 0.3
2017-Nov-11 21:00S 32°53' E 151°46'2 0.6
2017-Nov-11 17:39S 32°55' E 151°47'2 3.6
2017-Nov-11 17:11S 32°54' E 151°46'1 2.8
2017-Nov-11 17:00S 32°53' E 151°46'2 0.2
2017-Nov-11 01:19S 32°54' E 151°49'2 0.3
2017-Nov-10 18:23S 32°54' E 151°46'1 2.1
2017-Nov-10 17:54S 32°55' E 151°47'2 3.7
2017-Nov-10 17:29S 32°54' E 151°46'0 0.3
2017-Nov-10 16:19S 32°53' E 151°46'1 0.9
2017-Nov-10 15:26S 32°54' E 151°46'0 0.0
2017-Nov-10 08:02S 32°54' E 151°46'2 1.8
2017-Nov-10 07:08S 32°55' E 151°48'1 4.9
2017-Nov-10 06:53S 32°55' E 151°47'2 0.4
2017-Nov-10 01:38S 32°53' E 151°46'2 0.4
2017-Nov-09 20:51S 32°55' E 151°46'2 1.8
2017-Nov-09 19:42S 32°53' E 151°46'1 3.0
2017-Nov-09 19:22S 32°54' E 151°46'1 0.2
2017-Nov-09 17:15S 32°54' E 151°46'1 4.4
2017-Nov-09 16:58S 32°55' E 151°47'0 0.4
2017-Nov-09 16:11S 32°55' E 151°47'2 3.7
2017-Nov-09 15:38S 32°53' E 151°46'  
Track history (hours):
 
Tides and Currents Weather Stations Pressure Air Temp Water Temp Dewpoint Dewpoint Depression Visibility Wind Speed Wind Dir Waves Ship Positions

Svitzer Hamilton

Last reported at 2017-Nov-19 14:54 UTC. Time now 2017-Nov-20 23:06 UTC.
Position S 32°55' E 151°47'.

Length 25 m; draft 5.4 m.

Type: Tug. MMSI: 503544000.

Date/timePositionNaut miles runAvg speedWind from/ knotsBaromVisibWave heightAir tempDewpointWater temp
2017-Nov-19 14:54S 32°55' E 151°47'2 3.1
2017-Nov-19 14:15S 32°54' E 151°46'1 4.2
2017-Nov-19 14:00S 32°55' E 151°46'1 1.4
2017-Nov-19 13:15S 32°55' E 151°47'0 0.3
2017-Nov-19 12:42S 32°55' E 151°47'1 4.6
2017-Nov-19 12:29S 32°55' E 151°46'1 1.6
2017-Nov-19 11:46S 32°53' E 151°46'0 0.1
2017-Nov-19 11:11S 32°53' E 151°46'1 0.5
2017-Nov-19 08:26S 32°55' E 151°46'1 1.0
2017-Nov-19 07:46S 32°54' E 151°46'1 0.1
2017-Nov-18 23:17S 32°53' E 151°46'1 2.9
2017-Nov-18 23:00S 32°54' E 151°46'2 3.7
2017-Nov-18 22:30S 32°55' E 151°49'1 2.3
2017-Nov-18 21:54S 32°55' E 151°47'2 3.5
2017-Nov-18 21:26S 32°54' E 151°46'0 0.4
2017-Nov-18 20:43S 32°54' E 151°46'1 0.1
2017-Nov-18 12:54S 32°55' E 151°46'0 0.2
2017-Nov-18 12:29S 32°55' E 151°46'1 1.0
2017-Nov-18 11:13S 32°54' E 151°46'1 2.3
2017-Nov-18 10:59S 32°54' E 151°46'1 0.3
2017-Nov-18 09:02S 32°53' E 151°46'2 0.3
2017-Nov-18 03:09S 32°55' E 151°46'1 0.1
2017-Nov-17 19:46S 32°54' E 151°46'1 4.6
2017-Nov-17 19:30S 32°55' E 151°47'2 0.2
2017-Nov-17 10:14S 32°54' E 151°46'0 0.0
2017-Nov-17 07:39S 32°54' E 151°46'1 3.5
2017-Nov-17 07:26S 32°54' E 151°46'1 0.4
2017-Nov-17 04:04S 32°55' E 151°47'1 7.9
2017-Nov-17 03:53S 32°55' E 151°49'2 0.3
2017-Nov-16 21:47S 32°55' E 151°47'2 3.4
2017-Nov-16 21:16S 32°54' E 151°46'0 0.0
2017-Nov-16 19:14S 32°53' E 151°46'0 0.0
2017-Nov-16 13:05S 32°53' E 151°46'0 0.4
2017-Nov-16 12:57S 32°53' E 151°46'0 0.0
2017-Nov-16 00:34S 32°54' E 151°46'2 0.3
2017-Nov-15 19:22S 32°55' E 151°47'0 0.1
2017-Nov-15 17:27S 32°55' E 151°47'2 3.5
2017-Nov-15 17:00S 32°54' E 151°46'0 0.0
2017-Nov-15 03:49S 32°53' E 151°46'2 4.5
2017-Nov-15 03:25S 32°55' E 151°47'2 3.8
2017-Nov-15 02:59S 32°55' E 151°49'2 0.9
2017-Nov-15 00:34S 32°55' E 151°46'0 4.6
2017-Nov-15 00:30S 32°55' E 151°47'1 1.9
2017-Nov-14 23:59S 32°54' E 151°46'2 1.8
2017-Nov-14 23:06S 32°55' E 151°48'1 7.0
2017-Nov-14 22:59S 32°54' E 151°49'1 1.1
2017-Nov-14 22:28S 32°54' E 151°48'2 2.5
2017-Nov-14 21:52S 32°55' E 151°47'2 0.9
2017-Nov-14 19:52S 32°54' E 151°46'2 3.2
2017-Nov-14 19:09S 32°55' E 151°48'2 3.3
2017-Nov-14 18:40S 32°55' E 151°47'1 1.8
2017-Nov-14 18:23S 32°55' E 151°46'1 1.9
2017-Nov-14 18:00S 32°55' E 151°47'2 3.3
2017-Nov-14 17:29S 32°54' E 151°46'0 0.4
2017-Nov-14 16:31S 32°54' E 151°46'0 5.8
2017-Nov-14 16:30S 32°54' E 151°46'0 0.0
2017-Nov-14 10:33S 32°54' E 151°46'0 0.0
2017-Nov-14 10:26S 32°54' E 151°46'1 0.3
2017-Nov-14 08:38S 32°54' E 151°46'0 0.3
2017-Nov-14 08:08S 32°53' E 151°46'0 2.8
2017-Nov-14 07:58S 32°54' E 151°46'2 0.2
2017-Nov-13 23:29S 32°55' E 151°47'0 0.3
2017-Nov-13 21:53S 32°55' E 151°47'0 0.0
2017-Nov-13 01:10S 32°55' E 151°47'1 0.7
2017-Nov-12 23:03S 32°55' E 151°48'0 2.1
2017-Nov-12 22:56S 32°55' E 151°48'2 1.1
2017-Nov-12 21:10S 32°54' E 151°46'1 3.2
2017-Nov-12 20:55S 32°55' E 151°46'1 0.3
2017-Nov-12 16:56S 32°53' E 151°46'1 0.1
2017-Nov-12 11:20S 32°54' E 151°46'1 0.1
2017-Nov-12 06:21S 32°54' E 151°46'0 0.0
2017-Nov-11 21:13S 32°53' E 151°46'0 0.3
2017-Nov-11 21:00S 32°53' E 151°46'2 0.6
2017-Nov-11 17:39S 32°55' E 151°47'2 3.6
2017-Nov-11 17:11S 32°54' E 151°46'1 2.8
2017-Nov-11 17:00S 32°53' E 151°46'2 0.2
2017-Nov-11 01:19S 32°54' E 151°49'2 0.3
2017-Nov-10 18:23S 32°54' E 151°46'1 2.1
2017-Nov-10 17:54S 32°55' E 151°47'2 3.7
2017-Nov-10 17:29S 32°54' E 151°46'0 0.3
2017-Nov-10 16:19S 32°53' E 151°46'1 0.9
2017-Nov-10 15:26S 32°54' E 151°46'0 0.0
2017-Nov-10 08:02S 32°54' E 151°46'2 1.8
2017-Nov-10 07:08S 32°55' E 151°48'1 4.9
2017-Nov-10 06:53S 32°55' E 151°47'2 0.4
2017-Nov-10 01:38S 32°53' E 151°46'2 0.4
2017-Nov-09 20:51S 32°55' E 151°46'2 1.8
2017-Nov-09 19:42S 32°53' E 151°46'1 3.0
2017-Nov-09 19:22S 32°54' E 151°46'1 0.2
2017-Nov-09 17:15S 32°54' E 151°46'1 4.4
2017-Nov-09 16:58S 32°55' E 151°47'0 0.4
2017-Nov-09 16:11S 32°55' E 151°47'2 3.7
2017-Nov-09 15:38S 32°53' E 151°46'  

Dump ship's entire track history